createdAt,value
2023-05-10T00:00:29.984Z,0.40
2023-05-10T00:02:57.589Z,0.40
2023-05-10T00:05:25.083Z,0.60
2023-05-10T00:07:52.728Z,0.70
2023-05-10T00:10:20.216Z,0.60
2023-05-10T00:12:47.779Z,0.50
2023-05-10T00:15:16.658Z,0.50
2023-05-10T00:17:44.162Z,0.40
2023-05-10T00:20:12.981Z,0.40
2023-05-10T00:22:40.501Z,0.40
2023-05-10T00:25:09.858Z,0.30
2023-05-10T00:27:37.363Z,0.20
2023-05-10T00:30:05.593Z,0.20
2023-05-10T00:32:34.479Z,0.20
2023-05-10T00:35:02.024Z,0.10
2023-05-10T00:37:29.578Z,0.30
2023-05-10T00:39:57.140Z,0.10
2023-05-10T00:42:24.742Z,0.10
2023-05-10T00:44:52.331Z,0.20
2023-05-10T00:47:19.928Z,0.20
2023-05-10T00:49:48.838Z,0.20
2023-05-10T00:52:16.457Z,0.10
2023-05-10T00:54:44.068Z,0.13
2023-05-10T00:57:11.860Z,0.10
2023-05-10T00:59:39.598Z,0.10
2023-05-10T01:02:07.787Z,0.20
2023-05-10T01:04:35.604Z,0.10
2023-05-10T01:07:04.480Z,0.20
2023-05-10T01:09:32.175Z,0.27
2023-05-10T01:12:00.404Z,0.10
2023-05-10T01:14:28.586Z,0.20
2023-05-10T01:16:56.873Z,0.30
2023-05-10T01:19:27.066Z,0.20
2023-05-10T01:22:04.284Z,0.10
2023-05-10T01:24:52.978Z,0.10
2023-05-10T01:27:57.355Z,0.10
2023-05-10T01:30:55.318Z,0.10
2023-05-10T01:33:29.666Z,0.20
2023-05-10T01:36:03.373Z,0.10
2023-05-10T01:38:39.973Z,0.10
2023-05-10T01:41:18.370Z,0.10
2023-05-10T01:43:55.764Z,0.20
2023-05-10T01:46:30.684Z,0.10
2023-05-10T01:49:02.364Z,0.20
2023-05-10T01:51:35.806Z,0.20
2023-05-10T01:54:05.897Z,0.20
2023-05-10T01:56:36.923Z,0.10
2023-05-10T01:59:10.696Z,0.20
2023-05-10T02:01:39.723Z,0.30
2023-05-10T02:04:10.873Z,0.20
2023-05-10T02:06:41.271Z,0.20
2023-05-10T02:09:10.935Z,0.20
2023-05-10T02:11:40.396Z,0.30
2023-05-10T02:14:11.460Z,0.30
2023-05-10T02:16:40.865Z,0.30
2023-05-10T02:19:12.380Z,0.27
2023-05-10T02:21:41.184Z,0.20
2023-05-10T02:24:10.518Z,0.20
2023-05-10T02:26:40.044Z,0.10
2023-05-10T02:29:08.704Z,0.10
2023-05-10T02:31:39.653Z,0.27
2023-05-10T02:34:10.538Z,0.30
2023-05-10T02:36:39.763Z,0.20
2023-05-10T02:39:10.945Z,0.20
2023-05-10T02:41:39.879Z,0.20
2023-05-10T02:44:10.020Z,0.40
2023-05-10T02:46:38.523Z,0.20
2023-05-10T02:49:06.669Z,0.00
2023-05-10T02:51:39.637Z,0.20
2023-05-10T02:54:13.902Z,0.30
2023-05-10T02:56:48.939Z,0.20
2023-05-10T02:59:16.521Z,0.30
2023-05-10T03:01:44.243Z,0.20
2023-05-10T03:04:11.786Z,0.40
2023-05-10T03:06:41.197Z,0.20
2023-05-10T03:09:10.290Z,0.40
2023-05-10T03:11:49.533Z,0.30
2023-05-10T03:14:28.370Z,0.20
2023-05-10T03:17:01.564Z,0.30
2023-05-10T03:19:34.267Z,0.20
2023-05-10T03:22:10.693Z,0.30
2023-05-10T03:24:41.274Z,0.40
2023-05-10T03:27:10.487Z,0.40
2023-05-10T03:29:39.902Z,0.40
2023-05-10T03:32:07.456Z,0.30
2023-05-10T03:34:34.960Z,0.30
2023-05-10T03:37:03.780Z,0.33
2023-05-10T03:39:31.244Z,0.30
2023-05-10T03:41:58.809Z,0.30
2023-05-10T03:44:26.399Z,0.40
2023-05-10T03:46:54.000Z,0.50
2023-05-10T03:49:21.491Z,0.30
2023-05-10T03:51:48.971Z,0.40
2023-05-10T03:54:17.772Z,0.23
2023-05-10T03:56:45.303Z,0.20
2023-05-10T03:59:12.778Z,0.30
2023-05-10T04:01:40.264Z,0.40
2023-05-10T04:04:07.841Z,0.40
2023-05-10T04:06:36.026Z,0.60
2023-05-10T04:09:05.128Z,0.70
2023-05-10T04:11:33.991Z,0.60
2023-05-10T04:14:01.601Z,0.67
2023-05-10T04:16:29.261Z,0.60
2023-05-10T04:18:56.745Z,0.80
2023-05-10T04:21:24.204Z,0.63
2023-05-10T04:23:51.821Z,0.63
2023-05-10T04:26:19.364Z,0.60
2023-05-10T04:28:48.172Z,0.70
2023-05-10T04:31:15.671Z,0.70
2023-05-10T04:33:43.188Z,0.60
2023-05-10T04:36:11.018Z,0.70
2023-05-10T04:38:38.639Z,0.60
2023-05-10T04:41:07.164Z,0.80
2023-05-10T04:43:34.748Z,0.80
2023-05-10T04:46:04.494Z,0.67
2023-05-10T04:48:32.623Z,0.73
2023-05-10T04:51:00.251Z,0.70
2023-05-10T04:53:27.692Z,0.80
2023-05-10T04:55:55.184Z,0.80
2023-05-10T04:58:22.926Z,0.60
2023-05-10T05:00:50.770Z,0.40
2023-05-10T05:03:20.012Z,0.50
2023-05-10T05:05:47.529Z,0.50
2023-05-10T05:08:15.005Z,0.60
2023-05-10T05:10:42.541Z,0.53
2023-05-10T05:13:10.031Z,0.70
2023-05-10T05:15:37.665Z,0.50
2023-05-10T05:18:06.346Z,0.60
2023-05-10T05:20:35.668Z,0.50
2023-05-10T05:23:03.407Z,0.50
2023-05-10T05:25:30.905Z,0.53
2023-05-10T05:27:58.461Z,0.60
2023-05-10T05:30:25.985Z,0.60
2023-05-10T05:32:53.558Z,0.60
2023-05-10T05:35:21.126Z,0.60
2023-05-10T05:37:49.927Z,0.60
2023-05-10T05:40:17.447Z,0.60
2023-05-10T05:42:44.912Z,0.50
2023-05-10T05:45:14.760Z,0.50
2023-05-10T05:47:42.647Z,0.60
2023-05-10T05:50:11.951Z,0.60
2023-05-10T05:52:39.488Z,0.50
2023-05-10T05:55:09.064Z,0.60
2023-05-10T05:57:36.865Z,0.60
2023-05-10T06:00:05.140Z,0.50
2023-05-10T06:02:32.779Z,0.60
2023-05-10T06:05:00.286Z,0.60
2023-05-10T06:07:27.861Z,0.60
2023-05-10T06:09:55.577Z,0.50
2023-05-10T06:12:24.535Z,0.40
2023-05-10T06:14:52.112Z,0.40
2023-05-10T06:17:20.033Z,0.50
2023-05-10T06:19:47.867Z,0.50
2023-05-10T06:22:15.531Z,0.50
2023-05-10T06:24:43.429Z,0.60
2023-05-10T06:27:10.940Z,0.70
2023-05-10T06:29:39.829Z,0.70
2023-05-10T06:32:07.376Z,0.83
2023-05-10T06:34:35.246Z,0.70
2023-05-10T06:37:04.396Z,0.90
2023-05-10T06:39:31.963Z,0.50
2023-05-10T06:41:59.631Z,0.47
2023-05-10T06:44:27.364Z,0.40
2023-05-10T06:46:56.813Z,0.40
2023-05-10T06:49:24.294Z,0.40
2023-05-10T06:51:51.795Z,0.40
2023-05-10T06:54:19.277Z,0.27
2023-05-10T06:56:46.908Z,0.20
2023-05-10T06:59:16.021Z,0.50
2023-05-10T07:01:43.755Z,0.30
2023-05-10T07:04:12.727Z,0.23
2023-05-10T07:06:40.376Z,0.30
2023-05-10T07:09:08.585Z,0.30
2023-05-10T07:11:36.430Z,0.50
2023-05-10T07:14:03.939Z,0.30
2023-05-10T07:16:31.448Z,0.40
2023-05-10T07:18:58.979Z,0.50
2023-05-10T07:21:29.580Z,0.67
2023-05-10T07:23:57.199Z,0.60
2023-05-10T07:26:24.944Z,0.70
2023-05-10T07:28:52.487Z,0.50
2023-05-10T07:31:20.011Z,0.47
2023-05-10T07:33:47.780Z,0.70
2023-05-10T07:36:15.507Z,0.60
2023-05-10T07:38:44.357Z,0.70
2023-05-10T07:41:14.198Z,0.80
2023-05-10T07:43:41.832Z,0.80
2023-05-10T07:46:11.058Z,1.10
2023-05-10T07:48:38.762Z,0.97
2023-05-10T07:51:07.340Z,1.10
2023-05-10T07:53:34.811Z,0.77
2023-05-10T07:56:23.140Z,1.10
2023-05-10T07:58:51.187Z,1.07
2023-05-10T08:01:18.675Z,0.90
2023-05-10T08:03:46.257Z,1.00
2023-05-10T08:06:13.838Z,1.00
2023-05-10T08:08:42.449Z,0.87
2023-05-10T08:11:11.293Z,1.03
2023-05-10T08:13:38.929Z,1.13
2023-05-10T08:16:06.914Z,1.00
2023-05-10T08:18:34.544Z,1.20
2023-05-10T08:21:02.049Z,1.10
2023-05-10T08:23:29.490Z,1.07
2023-05-10T08:25:56.964Z,1.20
2023-05-10T08:28:25.898Z,1.07
2023-05-10T08:30:53.654Z,1.00
2023-05-10T08:33:21.265Z,1.10
2023-05-10T08:35:49.097Z,1.07
2023-05-10T08:38:16.669Z,1.10
2023-05-10T08:40:46.574Z,1.20
2023-05-10T08:43:16.564Z,1.20
2023-05-10T08:45:48.021Z,1.13
2023-05-10T08:48:17.256Z,1.50
2023-05-10T08:50:44.781Z,1.10
2023-05-10T08:53:13.968Z,1.17
2023-05-10T08:55:43.597Z,1.27
2023-05-10T08:58:11.596Z,1.03
2023-05-10T09:00:39.178Z,1.00
2023-05-10T09:03:08.120Z,1.40
2023-05-10T09:05:35.739Z,1.50
2023-05-10T09:08:03.285Z,1.40
2023-05-10T09:10:32.770Z,1.43
2023-05-10T09:13:00.836Z,1.50
2023-05-10T09:15:28.377Z,1.50
2023-05-10T09:17:56.758Z,1.20
2023-05-10T09:20:26.093Z,1.40
2023-05-10T09:22:53.655Z,1.17
2023-05-10T09:25:21.449Z,0.90
2023-05-10T09:27:50.035Z,0.90
2023-05-10T09:30:18.768Z,0.70
2023-05-10T09:32:48.150Z,0.90
2023-05-10T09:35:17.817Z,0.80
2023-05-10T09:37:50.374Z,1.10
2023-05-10T09:40:19.353Z,0.80
2023-05-10T09:42:53.658Z,0.80
2023-05-10T09:45:21.551Z,0.90
2023-05-10T09:47:49.243Z,1.00
2023-05-10T09:50:17.129Z,0.90
2023-05-10T09:52:51.248Z,0.90
2023-05-10T09:55:20.782Z,1.00
2023-05-10T09:57:49.176Z,0.93
2023-05-10T10:00:21.038Z,0.90
2023-05-10T10:02:50.490Z,0.90
2023-05-10T10:05:18.514Z,1.03
2023-05-10T10:07:46.328Z,1.03
2023-05-10T10:10:15.484Z,1.00
2023-05-10T10:12:43.491Z,1.00
2023-05-10T10:15:11.716Z,1.10
2023-05-10T10:17:40.451Z,0.90
2023-05-10T10:20:11.808Z,1.00
2023-05-10T10:22:39.817Z,0.98
2023-05-10T10:25:08.674Z,1.10
2023-05-10T10:27:48.155Z,0.95
2023-05-10T10:30:27.076Z,0.80
2023-05-10T10:33:24.363Z,0.90
2023-05-10T10:35:56.488Z,0.90
2023-05-10T10:38:24.316Z,0.80
2023-05-10T10:41:04.535Z,0.90
2023-05-10T10:43:33.573Z,0.85
2023-05-10T10:46:18.156Z,0.82
2023-05-10T10:48:50.766Z,1.15
2023-05-10T10:51:18.306Z,0.90
2023-05-10T10:53:45.879Z,1.00
2023-05-10T10:56:16.209Z,0.90
2023-05-10T10:58:52.870Z,0.80
2023-05-10T11:01:21.420Z,1.00
2023-05-10T11:04:19.281Z,0.82
2023-05-10T11:06:46.944Z,0.90
2023-05-10T11:09:14.632Z,1.00
2023-05-10T11:11:52.028Z,1.10
2023-05-10T11:14:24.228Z,1.15
2023-05-10T11:16:52.232Z,0.90
2023-05-10T11:19:21.281Z,0.80
2023-05-10T11:21:50.019Z,0.90
2023-05-10T11:24:19.260Z,1.00
2023-05-10T11:26:46.892Z,0.75
2023-05-10T11:29:15.142Z,0.60
2023-05-10T11:31:48.538Z,0.60
2023-05-10T11:34:26.003Z,0.63
2023-05-10T11:36:55.011Z,0.50
2023-05-10T11:39:22.687Z,0.50
2023-05-10T11:41:51.573Z,0.50
2023-05-10T11:44:19.252Z,0.40
2023-05-10T11:46:48.127Z,0.40
2023-05-10T11:49:15.793Z,0.43
2023-05-10T11:51:44.531Z,0.40
2023-05-10T11:54:13.398Z,0.40
2023-05-10T11:56:42.223Z,0.40
2023-05-10T11:59:09.989Z,0.40
2023-05-10T12:01:38.499Z,0.43
2023-05-10T12:04:07.765Z,0.40
2023-05-10T12:06:41.700Z,0.50
2023-05-10T12:09:10.026Z,0.50
2023-05-10T12:11:42.533Z,0.40
2023-05-10T12:14:11.583Z,0.40
2023-05-10T12:16:39.137Z,0.57
2023-05-10T12:19:08.547Z,0.70
2023-05-10T12:21:36.531Z,0.60
2023-05-10T12:24:05.802Z,0.40
2023-05-10T12:26:33.893Z,0.70
2023-05-10T12:29:14.649Z,0.43
2023-05-10T12:31:55.677Z,0.50
2023-05-10T12:34:28.604Z,0.60
2023-05-10T12:36:57.056Z,0.67
2023-05-10T12:39:25.236Z,0.40
2023-05-10T12:41:52.845Z,0.53
2023-05-10T12:44:20.519Z,0.40
2023-05-10T12:46:48.793Z,0.40
2023-05-10T12:49:16.371Z,0.50
2023-05-10T12:51:45.283Z,0.40
2023-05-10T12:54:12.832Z,0.50
2023-05-10T12:56:41.740Z,0.47
2023-05-10T12:59:09.267Z,0.40
2023-05-10T13:01:36.894Z,0.50
2023-05-10T13:04:04.569Z,0.50
2023-05-10T13:06:32.493Z,0.43
2023-05-10T13:09:01.350Z,0.50
2023-05-10T13:11:28.841Z,0.40
2023-05-10T13:13:56.544Z,0.40
2023-05-10T13:16:24.160Z,0.37
2023-05-10T13:18:51.730Z,0.40
2023-05-10T13:21:19.231Z,0.40
2023-05-10T13:23:47.448Z,0.50
2023-05-10T13:26:16.308Z,0.40
2023-05-10T13:28:43.915Z,0.40
2023-05-10T13:31:11.996Z,0.43
2023-05-10T13:33:39.454Z,0.30
2023-05-10T13:36:08.070Z,0.30
2023-05-10T13:38:35.586Z,0.40
2023-05-10T13:41:03.054Z,0.50
2023-05-10T13:43:32.244Z,0.30
2023-05-10T13:45:59.943Z,0.27
2023-05-10T13:48:27.428Z,0.40
2023-05-10T13:50:54.915Z,0.63
2023-05-10T13:53:22.674Z,0.30
2023-05-10T13:55:51.410Z,0.47
2023-05-10T13:58:18.904Z,0.47
2023-05-10T14:00:47.861Z,0.40
2023-05-10T14:03:15.387Z,0.40
2023-05-10T14:05:42.920Z,0.50
2023-05-10T14:08:10.892Z,0.60
2023-05-10T14:10:38.923Z,0.77
2023-05-10T14:13:07.114Z,0.80
2023-05-10T14:15:34.627Z,0.80
2023-05-10T14:18:03.567Z,0.80
2023-05-10T14:20:31.293Z,0.90
2023-05-10T14:22:58.829Z,0.97
2023-05-10T14:25:26.441Z,1.10
2023-05-10T14:27:55.505Z,0.90
2023-05-10T14:30:23.043Z,1.10
2023-05-10T14:32:50.582Z,0.80
2023-05-10T14:35:19.948Z,0.70
2023-05-10T14:37:47.711Z,0.80
2023-05-10T14:40:16.508Z,0.80
2023-05-10T14:42:44.446Z,0.67
2023-05-10T14:45:13.111Z,0.60
2023-05-10T14:47:40.677Z,0.57
2023-05-10T14:50:09.151Z,0.50
2023-05-10T14:52:38.001Z,0.57
2023-05-10T14:55:06.299Z,0.60
2023-05-10T14:57:34.218Z,0.60
2023-05-10T15:00:01.762Z,0.70
2023-05-10T15:02:29.885Z,0.57
2023-05-10T15:04:58.388Z,0.70
2023-05-10T15:07:26.460Z,0.60
2023-05-10T15:09:55.270Z,0.60
2023-05-10T15:12:22.802Z,0.70
2023-05-10T15:14:50.304Z,0.50
2023-05-10T15:17:18.550Z,0.60
2023-05-10T15:19:46.008Z,0.55
2023-05-10T15:22:13.520Z,0.50
2023-05-10T15:24:41.005Z,0.60
2023-05-10T15:27:09.872Z,0.55
2023-05-10T15:29:37.540Z,0.70
2023-05-10T15:32:05.261Z,0.52
2023-05-10T15:34:34.909Z,0.60
2023-05-10T15:37:03.721Z,0.70
2023-05-10T15:39:31.278Z,0.60
2023-05-10T15:41:58.752Z,0.70
2023-05-10T15:44:27.637Z,0.47
2023-05-10T15:46:55.377Z,0.60
2023-05-10T15:49:22.934Z,0.60
2023-05-10T15:51:50.445Z,0.50
2023-05-10T15:54:17.898Z,1.02
2023-05-10T15:56:45.404Z,0.60
2023-05-10T15:59:13.111Z,0.50
2023-05-10T16:01:41.986Z,0.50
2023-05-10T16:04:09.411Z,0.60
2023-05-10T16:06:38.793Z,0.60
2023-05-10T16:09:06.267Z,0.50
2023-05-10T16:11:33.769Z,0.70
2023-05-10T16:14:01.228Z,0.50
2023-05-10T16:16:28.879Z,0.40
2023-05-10T16:18:58.716Z,0.38
2023-05-10T16:21:26.321Z,0.50
2023-05-10T16:23:53.837Z,0.50
2023-05-10T16:26:21.753Z,0.73
2023-05-10T16:28:49.676Z,0.68
2023-05-10T16:31:18.903Z,0.60
2023-05-10T16:33:46.433Z,0.50
2023-05-10T16:36:15.437Z,0.50
2023-05-10T16:38:43.009Z,0.50
2023-05-10T16:41:10.800Z,0.60
2023-05-10T16:43:38.419Z,0.70
2023-05-10T16:46:11.204Z,0.70
2023-05-10T16:48:38.774Z,0.60
2023-05-10T16:51:06.372Z,0.60
2023-05-10T16:53:35.509Z,0.70
2023-05-10T16:56:03.036Z,0.50
2023-05-10T16:58:30.618Z,0.70
2023-05-10T17:00:58.056Z,0.80
2023-05-10T17:03:25.720Z,1.10
2023-05-10T17:05:53.354Z,1.00
2023-05-10T17:08:20.846Z,0.70
2023-05-10T17:10:49.654Z,0.60
2023-05-10T17:13:17.951Z,0.73
2023-05-10T17:15:47.403Z,0.70
2023-05-10T17:18:15.004Z,0.67
2023-05-10T17:20:44.983Z,0.50
2023-05-10T17:23:12.481Z,0.50
2023-05-10T17:25:41.912Z,0.70
2023-05-10T17:28:10.910Z,0.60
2023-05-10T17:30:38.578Z,0.60
2023-05-10T17:33:06.194Z,0.60
2023-05-10T17:35:34.067Z,0.60
2023-05-10T17:38:01.729Z,0.50
2023-05-10T17:40:29.633Z,0.60
2023-05-10T17:42:57.269Z,0.67
2023-05-10T17:45:26.371Z,0.63
2023-05-10T17:47:53.859Z,0.90
2023-05-10T17:50:21.342Z,0.90
2023-05-10T17:52:48.842Z,0.73
2023-05-10T17:55:16.731Z,0.80
2023-05-10T17:57:44.400Z,0.90
2023-05-10T18:00:13.181Z,0.97
2023-05-10T18:02:42.149Z,0.80
2023-05-10T18:05:11.027Z,0.80
2023-05-10T18:07:38.700Z,0.80
2023-05-10T18:10:07.191Z,1.20
2023-05-10T18:12:34.652Z,0.80
2023-05-10T18:15:02.163Z,0.83
2023-05-10T18:17:29.938Z,1.00
2023-05-10T18:19:58.774Z,0.83
2023-05-10T18:22:26.991Z,0.80
2023-05-10T18:24:54.428Z,0.90
2023-05-10T18:27:21.961Z,0.97
2023-05-10T18:29:49.440Z,1.00
2023-05-10T18:32:18.017Z,1.00
2023-05-10T18:34:45.536Z,0.93
2023-05-10T18:37:15.571Z,1.20
2023-05-10T18:39:43.107Z,1.00
2023-05-10T18:42:10.982Z,1.17
2023-05-10T18:44:38.417Z,1.13
2023-05-10T18:47:05.960Z,1.20
2023-05-10T18:49:33.395Z,1.23
2023-05-10T18:52:00.988Z,1.10
2023-05-10T18:54:29.954Z,1.20
2023-05-10T18:56:58.518Z,1.30
2023-05-10T18:59:27.705Z,1.20
2023-05-10T19:01:57.111Z,1.00
2023-05-10T19:04:25.268Z,1.00
2023-05-10T19:06:52.792Z,1.00
2023-05-10T19:09:21.039Z,1.00
2023-05-10T19:11:49.837Z,1.20
2023-05-10T19:14:17.298Z,1.07
2023-05-10T19:16:44.776Z,0.93
2023-05-10T19:19:14.831Z,0.90
2023-05-10T19:21:42.275Z,1.10
2023-05-10T19:24:10.679Z,1.00
2023-05-10T19:26:38.289Z,1.10
2023-05-10T19:29:07.207Z,1.10
2023-05-10T19:31:35.534Z,1.10
2023-05-10T19:34:03.899Z,0.90
2023-05-10T19:36:31.695Z,1.00
2023-05-10T19:38:59.006Z,1.20
2023-05-10T19:41:26.762Z,1.00
2023-05-10T19:43:54.322Z,1.10
2023-05-10T19:46:23.371Z,0.73
2023-05-10T19:48:51.067Z,0.90
2023-05-10T19:51:18.585Z,0.90
2023-05-10T19:53:46.091Z,0.70
2023-05-10T19:56:14.232Z,0.80
2023-05-10T19:58:45.180Z,0.80
2023-05-10T20:01:13.032Z,0.70
2023-05-10T20:03:42.008Z,0.90
2023-05-10T20:06:09.540Z,0.80
2023-05-10T20:08:37.139Z,0.63
2023-05-10T20:11:05.588Z,0.60
2023-05-10T20:13:33.362Z,0.70
2023-05-10T20:16:02.161Z,1.03
2023-05-10T20:18:29.667Z,1.20
2023-05-10T20:21:00.017Z,1.00
2023-05-10T20:23:27.835Z,0.90
2023-05-10T20:25:55.785Z,0.90
2023-05-10T20:28:25.260Z,1.00
2023-05-10T20:30:54.448Z,1.20
2023-05-10T20:33:22.207Z,1.10
2023-05-10T20:35:51.111Z,1.00
2023-05-10T20:38:19.995Z,0.80
2023-05-10T20:40:47.506Z,0.90
2023-05-10T20:43:15.018Z,0.80
2023-05-10T20:45:42.648Z,0.77
2023-05-10T20:48:10.173Z,0.77
2023-05-10T20:50:37.629Z,0.70
2023-05-10T20:53:05.109Z,0.80
2023-05-10T20:55:33.934Z,0.90
2023-05-10T20:58:04.153Z,0.90
2023-05-10T21:00:32.536Z,0.93
2023-05-10T21:03:00.420Z,0.70
2023-05-10T21:05:27.955Z,0.80
2023-05-10T21:07:55.630Z,0.93
2023-05-10T21:10:23.130Z,0.77
2023-05-10T21:12:51.945Z,0.80
2023-05-10T21:15:19.509Z,0.80
2023-05-10T21:17:47.094Z,0.80
2023-05-10T21:20:15.194Z,1.00
2023-05-10T21:22:42.913Z,0.90
2023-05-10T21:25:10.909Z,0.93
2023-05-10T21:27:38.408Z,0.90
2023-05-10T21:30:08.766Z,0.90
2023-05-10T21:32:36.715Z,1.00
2023-05-10T21:35:04.280Z,1.00
2023-05-10T21:37:31.883Z,0.80
2023-05-10T21:39:59.385Z,0.93
2023-05-10T21:42:26.927Z,0.87
2023-05-10T21:44:54.385Z,1.10
2023-05-10T21:47:23.321Z,0.80
2023-05-10T21:49:51.411Z,0.90
2023-05-10T21:52:18.896Z,0.80
2023-05-10T21:54:46.372Z,0.80
2023-05-10T21:57:14.229Z,0.70
2023-05-10T21:59:41.768Z,0.80
2023-05-10T22:02:09.317Z,0.70
2023-05-10T22:04:38.180Z,0.70
2023-05-10T22:07:05.813Z,0.60
2023-05-10T22:09:33.286Z,0.70
2023-05-10T22:12:00.984Z,0.80
2023-05-10T22:14:28.496Z,0.67
2023-05-10T22:16:57.655Z,0.60
2023-05-10T22:19:25.219Z,0.67
2023-05-10T22:21:54.449Z,0.60
2023-05-10T22:24:22.192Z,0.50
2023-05-10T22:26:49.623Z,0.70
2023-05-10T22:29:17.096Z,0.70
2023-05-10T22:31:44.550Z,0.47
2023-05-10T22:34:12.024Z,0.70
2023-05-10T22:36:39.489Z,0.80
2023-05-10T22:39:08.345Z,0.60
2023-05-10T22:41:35.806Z,0.87
2023-05-10T22:44:04.897Z,0.80
2023-05-10T22:46:32.976Z,0.80
2023-05-10T22:49:00.613Z,0.70
2023-05-10T22:51:28.447Z,0.70
2023-05-10T22:53:56.050Z,0.60
2023-05-10T22:56:24.955Z,0.67
2023-05-10T22:58:52.594Z,0.60
2023-05-10T23:01:20.460Z,0.50
2023-05-10T23:03:47.953Z,0.60
2023-05-10T23:06:15.405Z,0.67
2023-05-10T23:08:43.150Z,0.70
2023-05-10T23:11:10.615Z,0.50
2023-05-10T23:13:39.394Z,0.70
2023-05-10T23:16:07.398Z,0.60
2023-05-10T23:18:35.011Z,0.60
2023-05-10T23:21:02.515Z,0.70
2023-05-10T23:23:30.324Z,0.80
2023-05-10T23:25:57.810Z,0.60
2023-05-10T23:28:25.291Z,0.90
2023-05-10T23:30:57.762Z,0.70
2023-05-10T23:33:26.264Z,0.80
2023-05-10T23:35:54.813Z,0.70
2023-05-10T23:38:22.330Z,0.70
2023-05-10T23:40:50.398Z,0.73
2023-05-10T23:43:19.683Z,0.80
2023-05-10T23:45:54.609Z,0.83
2023-05-10T23:48:23.942Z,0.90
2023-05-10T23:50:51.744Z,0.80
2023-05-10T23:53:19.466Z,0.80
2023-05-10T23:55:47.037Z,0.80
2023-05-10T23:58:14.643Z,0.70
